Time;durP1;ratioP1;P1;durP2;ratioP2;P2;SDS_P1;SDS_P2;PMS_P1;PMS_P2;Temp;Humidity;BMP_temperature;BMP_pressure;BME280_temperature;BME280_humidity;BME280_pressure;Samples;Min_cycle;Max_cycle;Signal;HPM_P1;HPM_P2
2022/02/19 00:02:01;;;;;;;10.82;2.30;;;5.40;99.90;;;;;;5091692;28;20569;-51
2022/02/19 00:04:27;;;;;;;5.18;1.20;;;5.50;99.90;;;;;;5092498;28;20112;-51
2022/02/19 00:06:52;;;;;;;8.75;2.30;;;5.50;99.90;;;;;;5091113;28;20024;-53
2022/02/19 00:09:18;;;;;;;8.90;2.40;;;5.40;99.90;;;;;;5092695;28;20048;-53
2022/02/19 00:11:44;;;;;;;6.30;1.65;;;5.40;99.90;;;;;;5092961;28;20035;-51
2022/02/19 00:14:09;;;;;;;6.35;1.70;;;5.50;99.90;;;;;;5091609;28;20440;-52
2022/02/19 00:16:36;;;;;;;6.68;2.42;;;5.50;99.90;;;;;;5091673;28;20511;-52
2022/02/19 00:19:03;;;;;;;3.00;1.42;;;5.50;99.90;;;;;;5091422;28;20020;-52
2022/02/19 00:21:28;;;;;;;11.15;2.67;;;5.50;99.90;;;;;;5090977;28;20031;-52
2022/02/19 00:23:54;;;;;;;9.88;2.30;;;5.40;99.90;;;;;;5089634;28;20028;-54
2022/02/19 00:26:19;;;;;;;8.82;2.70;;;5.20;99.90;;;;;;5091354;28;20028;-54
2022/02/19 00:28:45;;;;;;;9.52;2.63;;;5.00;99.90;;;;;;5082431;28;20066;-51
2022/02/19 00:31:10;;;;;;;4.47;1.98;;;4.80;99.90;;;;;;5070177;28;20111;-55
2022/02/19 00:33:36;;;;;;;7.30;1.85;;;4.60;99.90;;;;;;5078818;28;20065;-51
2022/02/19 00:36:02;;;;;;;8.82;1.83;;;4.50;99.90;;;;;;5089160;28;20031;-51
2022/02/19 00:38:28;;;;;;;15.00;2.80;;;4.30;99.90;;;;;;5091246;28;20111;-52
2022/02/19 00:40:54;;;;;;;13.70;2.15;;;4.30;99.90;;;;;;5091388;28;20028;-54
2022/02/19 00:43:19;;;;;;;7.47;2.35;;;4.30;99.90;;;;;;5082696;28;20348;-55
2022/02/19 00:45:45;;;;;;;11.27;2.58;;;4.30;99.90;;;;;;5068965;28;20844;-51
2022/02/19 00:48:11;;;;;;;9.23;2.30;;;4.20;99.90;;;;;;5069353;28;20448;-52
2022/02/19 00:50:36;;;;;;;9.93;2.03;;;4.30;99.90;;;;;;5071552;28;20056;-52
2022/02/19 00:53:02;;;;;;;14.20;2.47;;;4.30;99.90;;;;;;5071174;28;20048;-52
2022/02/19 00:55:28;;;;;;;10.57;2.20;;;4.30;99.90;;;;;;5070937;28;20061;-52
2022/02/19 00:57:54;;;;;;;7.05;2.05;;;4.30;99.90;;;;;;5073162;28;20062;-53
2022/02/19 01:00:20;;;;;;;12.90;2.60;;;4.20;99.90;;;;;;5091246;28;20301;-55
2022/02/19 01:02:45;;;;;;;7.97;1.75;;;4.10;99.90;;;;;;5090799;28;20030;-52
2022/02/19 01:05:11;;;;;;;6.85;2.28;;;4.10;99.90;;;;;;5071848;28;20051;-54
2022/02/19 01:07:37;;;;;;;8.93;2.15;;;4.00;99.90;;;;;;5072768;28;20504;-54
2022/02/19 01:10:04;;;;;;;7.38;2.47;;;4.00;99.90;;;;;;5071619;28;20036;-52
2022/02/19 01:12:30;;;;;;;5.97;1.83;;;3.90;99.90;;;;;;5070302;28;20016;-54
2022/02/19 01:14:55;;;;;;;5.50;1.60;;;4.00;99.90;;;;;;5073394;28;20369;-51
2022/02/19 01:17:21;;;;;;;9.35;2.00;;;4.00;99.90;;;;;;5091591;28;20028;-52
2022/02/19 01:19:47;;;;;;;2.47;1.38;;;3.90;99.90;;;;;;5072314;28;20036;-54
2022/02/19 01:22:12;;;;;;;5.88;1.38;;;3.90;99.90;;;;;;5070195;28;20492;-54
2022/02/19 01:24:38;;;;;;;7.07;1.50;;;3.90;99.90;;;;;;5072678;28;20055;-52
2022/02/19 01:27:04;;;;;;;6.72;1.80;;;3.90;99.90;;;;;;5070402;28;20078;-52
2022/02/19 01:29:30;;;;;;;6.10;1.52;;;3.90;99.90;;;;;;5072269;28;20033;-54
2022/02/19 01:31:55;;;;;;;7.45;2.00;;;3.80;99.90;;;;;;5070672;28;20051;-52
2022/02/19 01:34:22;;;;;;;5.28;1.55;;;3.70;99.90;;;;;;5070403;28;20032;-51
2022/02/19 01:36:48;;;;;;;7.60;1.55;;;3.60;99.90;;;;;;5071680;28;20028;-51
2022/02/19 01:39:14;;;;;;;8.77;2.60;;;3.60;99.90;;;;;;5072829;28;20032;-51
2022/02/19 01:41:39;;;;;;;9.45;1.30;;;3.50;99.90;;;;;;5071270;28;20127;-52
2022/02/19 07:59:44;;;;;;;5.05;2.03;;;2.50;99.90;;;;;;5070468;23;20137;-59
2022/02/19 08:02:12;;;;;;;8.27;1.60;;;2.50;99.90;;;;;;5044532;28;20123;-55
2022/02/19 08:04:37;;;;;;;12.73;1.88;;;2.50;99.90;;;;;;5046696;28;20664;-53
2022/02/19 08:07:03;;;;;;;7.53;1.48;;;2.60;99.90;;;;;;5046111;28;20105;-52
2022/02/19 08:09:28;;;;;;;8.55;2.05;;;2.70;99.90;;;;;;5046274;28;20032;-54
2022/02/19 08:11:54;;;;;;;12.52;2.08;;;2.70;99.90;;;;;;5046038;28;20112;-55
2022/02/19 08:14:19;;;;;;;5.72;1.33;;;2.80;99.90;;;;;;5045922;28;20034;-56
2022/02/19 08:16:45;;;;;;;4.70;1.13;;;2.80;99.90;;;;;;5046187;28;20652;-56
2022/02/19 08:19:11;;;;;;;8.10;1.45;;;3.00;99.90;;;;;;5046040;28;20022;-56
2022/02/19 08:21:36;;;;;;;5.45;1.90;;;3.10;99.90;;;;;;5045962;28;20048;-54
2022/02/19 08:24:02;;;;;;;16.88;1.77;;;3.20;99.90;;;;;;5045568;28;20111;-58
2022/02/19 08:26:27;;;;;;;6.85;1.05;;;3.30;99.90;;;;;;5045798;28;20035;-56
2022/02/19 08:28:54;;;;;;;7.03;1.50;;;3.40;99.90;;;;;;5045759;28;20025;-53
2022/02/19 08:31:20;;;;;;;8.75;1.30;;;3.70;99.90;;;;;;5045762;28;20530;-56
2022/02/19 08:33:46;;;;;;;5.45;1.08;;;3.70;99.90;;;;;;5044983;28;20018;-55
2022/02/19 08:36:11;;;;;;;4.70;0.95;;;3.70;99.90;;;;;;5044624;28;20523;-56
2022/02/19 08:38:37;;;;;;;4.20;1.25;;;3.70;99.90;;;;;;5045513;28;20105;-54
2022/02/19 08:41:03;;;;;;;3.00;0.82;;;3.70;99.90;;;;;;5045596;28;20017;-56
2022/02/19 08:43:28;;;;;;;2.25;1.00;;;3.60;99.90;;;;;;5044924;28;20092;-57
2022/02/19 08:45:54;;;;;;;4.57;0.80;;;3.60;99.90;;;;;;5044951;28;20164;-56
2022/02/19 08:48:20;;;;;;;2.70;0.82;;;3.60;99.90;;;;;;5045330;28;20068;-57
2022/02/19 08:50:45;;;;;;;3.33;0.50;;;3.60;99.90;;;;;;5044568;28;20036;-57
2022/02/19 08:53:12;;;;;;;5.32;1.27;;;3.50;99.90;;;;;;5044773;28;20025;-56
2022/02/19 08:55:39;;;;;;;3.25;1.17;;;3.40;99.90;;;;;;5044701;28;20049;-57
2022/02/19 08:58:05;;;;;;;0.73;0.57;;;3.50;99.90;;;;;;5030945;28;20057;-56
2022/02/19 09:00:31;;;;;;;3.95;1.30;;;3.40;99.90;;;;;;5030057;28;20167;-53
2022/02/19 09:02:57;;;;;;;3.40;1.10;;;3.40;99.90;;;;;;5031188;28;20045;-55
2022/02/19 09:05:23;;;;;;;8.20;1.55;;;3.40;99.90;;;;;;5030612;28;20542;-55
2022/02/19 09:07:48;;;;;;;1.45;1.17;;;3.40;99.90;;;;;;5030581;28;20056;-54
2022/02/19 09:10:15;;;;;;;3.75;1.27;;;3.40;99.90;;;;;;5012609;28;20057;-54
2022/02/19 09:12:46;;;;;;;3.10;1.25;;;3.50;99.90;;;;;;5024019;28;20572;-56
2022/02/19 09:15:16;;;;;;;3.47;1.27;;;3.50;99.90;;;;;;5030742;28;20393;-57
2022/02/19 09:17:42;;;;;;;1.70;0.82;;;3.60;99.90;;;;;;5031296;28;20108;-55
2022/02/19 09:20:09;;;;;;;2.38;1.77;;;3.60;99.90;;;;;;5031336;28;20100;-53
2022/02/19 09:22:36;;;;;;;5.93;0.85;;;3.60;99.90;;;;;;5031406;28;20370;-52
2022/02/19 09:25:01;;;;;;;1.42;1.33;;;3.70;99.90;;;;;;5031169;28;20030;-54
2022/02/19 09:27:27;;;;;;;5.88;2.20;;;3.70;99.90;;;;;;5031521;28;20571;-58
2022/02/19 09:29:53;;;;;;;2.38;0.75;;;3.60;99.90;;;;;;5030841;28;20488;-55
2022/02/19 09:32:18;;;;;;;2.20;2.00;;;3.60;99.90;;;;;;5030644;28;20033;-53
2022/02/19 09:34:44;;;;;;;1.80;1.00;;;3.50;99.90;;;;;;5030637;28;20108;-58
2022/02/19 09:37:10;;;;;;;2.30;0.65;;;3.50;99.90;;;;;;5031345;28;20057;-54
2022/02/19 09:39:36;;;;;;;1.13;1.02;;;3.50;99.90;;;;;;5013588;28;20021;-53
2022/02/19 09:42:03;;;;;;;2.75;1.10;;;3.40;99.90;;;;;;5030853;28;20022;-50
2022/02/19 09:44:30;;;;;;;1.30;1.20;;;3.30;99.90;;;;;;5012365;28;20045;-55
2022/02/19 09:46:57;;;;;;;1.15;1.10;;;3.30;99.90;;;;;;5012530;28;20022;-54
2022/02/19 09:49:22;;;;;;;1.63;0.60;;;3.30;99.90;;;;;;5030575;28;20108;-55
2022/02/19 09:51:48;;;;;;;2.10;1.90;;;3.30;99.90;;;;;;5011614;28;20108;-53
2022/02/19 09:54:14;;;;;;;2.05;1.85;;;3.20;99.90;;;;;;5028970;28;20033;-51
2022/02/19 09:56:39;;;;;;;1.85;1.45;;;3.30;99.90;;;;;;5029766;28;20100;-52
2022/02/19 09:59:08;;;;;;;13.45;9.95;;;3.30;99.90;;;;;;5029287;28;20025;-56
2022/02/19 10:01:34;;;;;;;11.38;8.18;;;3.40;99.90;;;;;;5030147;28;20017;-56
2022/02/19 10:04:02;;;;;;;9.30;5.93;;;3.40;99.90;;;;;;5030163;28;20431;-56
2022/02/19 10:06:39;;;;;;;6.85;4.90;;;3.30;99.90;;;;;;5030360;28;20026;-55
2022/02/19 10:09:10;;;;;;;;;;;3.30;99.90;;;;;;5029677;28;20021;-55
2022/02/19 10:11:37;;;;;;;6.13;3.88;;;3.20;99.90;;;;;;5029995;28;19909;-53
2022/02/19 10:14:18;;;;;;;2.40;1.77;;;3.20;99.90;;;;;;5012619;28;20025;-55
2022/02/19 10:16:44;;;;;;;1.98;1.10;;;3.10;99.90;;;;;;5028586;28;20029;-57
2022/02/19 10:19:09;;;;;;;3.08;0.82;;;3.00;99.90;;;;;;5029994;28;20029;-54
2022/02/19 10:21:35;;;;;;;3.92;1.70;;;2.90;99.90;;;;;;5029722;28;20083;-54
2022/02/19 10:24:02;;;;;;;2.53;0.77;;;2.80;99.90;;;;;;5029262;28;20056;-51
2022/02/19 10:26:31;;;;;;;3.55;0.98;;;2.70;99.90;;;;;;5029869;28;20569;-54
2022/02/19 10:29:03;;;;;;;3.53;0.75;;;2.70;99.90;;;;;;5029821;28;20381;-56
2022/02/19 10:31:29;;;;;;;2.45;0.80;;;2.70;99.90;;;;;;5029372;28;20534;-57
2022/02/19 10:34:09;;;;;;;1.27;0.95;;;2.70;99.90;;;;;;5029694;28;20120;-57
2022/02/19 10:36:45;;;;;;;2.42;1.05;;;2.80;99.90;;;;;;5029486;28;20370;-53
2022/02/19 10:39:11;;;;;;;2.95;1.40;;;2.90;99.90;;;;;;5029659;28;20025;-56
2022/02/19 10:41:39;;;;;;;5.43;1.48;;;3.10;99.90;;;;;;5029483;28;20017;-55
2022/02/19 10:44:30;;;;;;;5.35;1.75;;;3.30;99.90;;;;;;5029075;28;20053;-52
2022/02/19 10:47:17;;;;;;;7.00;1.85;;;3.50;99.90;;;;;;5029493;28;20025;-58
2022/02/19 10:50:11;;;;;;;6.80;1.80;;;3.70;99.90;;;;;;5029206;28;20112;-53
2022/02/19 10:52:42;;;;;;;7.13;1.65;;;3.90;99.90;;;;;;5017352;28;20052;-50
2022/02/19 10:55:17;;;;;;;8.48;2.00;;;4.00;99.90;;;;;;5029098;28;20037;-52
2022/02/19 10:57:45;;;;;;;9.40;2.43;;;4.20;99.90;;;;;;5029153;28;20102;-56
2022/02/19 11:00:11;;;;;;;7.85;1.98;;;4.30;99.90;;;;;;5028903;28;20038;-58
2022/02/19 11:02:38;;;;;;;4.95;2.20;;;4.30;99.90;;;;;;5010957;28;20039;-55
2022/02/19 11:05:06;;;;;;;8.82;2.72;;;4.30;99.90;;;;;;5028742;28;20029;-54
2022/02/19 11:07:34;;;;;;;9.45;2.75;;;4.30;99.90;;;;;;5028518;28;20712;-56
2022/02/19 11:10:00;;;;;;;10.13;2.50;;;4.30;99.90;;;;;;5011358;28;20055;-56
2022/02/19 11:12:26;;;;;;;9.90;2.47;;;4.40;99.90;;;;;;4994627;28;20057;-54
2022/02/19 11:14:52;;;;;;;12.02;2.75;;;4.40;99.90;;;;;;5028123;28;20539;-56
2022/02/19 11:17:19;;;;;;;6.65;2.13;;;4.50;99.90;;;;;;5029064;28;20025;-55
2022/02/19 11:19:44;;;;;;;11.10;2.60;;;4.50;99.90;;;;;;5028856;28;20028;-52
2022/02/19 11:22:10;;;;;;;6.40;2.40;;;4.40;99.90;;;;;;5028659;28;20025;-56
2022/02/19 11:24:38;;;;;;;7.22;2.03;;;4.50;99.90;;;;;;5028386;28;20615;-56
2022/02/19 11:27:05;;;;;;;9.05;2.25;;;4.60;99.90;;;;;;5028884;28;20022;-54
2022/02/19 11:29:31;;;;;;;5.85;2.10;;;4.60;99.90;;;;;;5028928;28;20086;-55
2022/02/19 11:31:58;;;;;;;7.78;2.42;;;4.60;99.90;;;;;;5028241;28;20033;-54
2022/02/19 11:34:24;;;;;;;9.43;2.10;;;4.60;99.90;;;;;;5028764;28;20033;-53
2022/02/19 11:36:51;;;;;;;6.93;1.48;;;4.60;99.90;;;;;;5028734;28;20079;-53
2022/02/19 11:39:16;;;;;;;10.50;2.60;;;4.70;99.90;;;;;;5010804;28;20022;-58
2022/02/19 11:41:45;;;;;;;7.65;1.83;;;4.70;99.90;;;;;;5028262;28;20028;-54
2022/02/19 11:44:19;;;;;;;6.22;1.95;;;4.80;99.90;;;;;;5028524;28;20022;-55
2022/02/19 11:46:46;;;;;;;4.47;1.58;;;4.80;99.90;;;;;;5010478;28;20037;-52
2022/02/19 11:49:27;;;;;;;5.07;1.40;;;4.90;99.90;;;;;;5028612;28;20021;-54
2022/02/19 11:52:11;;;;;;;5.93;1.58;;;5.00;99.90;;;;;;5028825;28;20033;-55
2022/02/19 11:54:37;;;;;;;5.53;1.55;;;5.10;99.90;;;;;;5029029;28;20034;-55
2022/02/19 11:57:14;;;;;;;7.72;1.70;;;5.20;99.90;;;;;;5010763;28;20574;-52
2022/02/19 11:59:43;;;;;;;2.42;1.00;;;5.30;99.90;;;;;;5028554;28;20064;-52
2022/02/19 12:02:29;;;;;;;5.32;1.55;;;5.30;99.90;;;;;;5010761;28;20029;-58
2022/02/19 12:05:26;;;;;;;4.38;1.65;;;5.30;99.90;;;;;;5011047;28;20087;-53
2022/02/19 12:07:57;;;;;;;5.63;1.58;;;5.30;99.90;;;;;;5028447;28;20025;-56
2022/02/19 12:10:22;;;;;;;2.30;1.15;;;5.40;99.90;;;;;;5028521;28;20508;-56
2022/02/19 12:13:11;;;;;;;2.83;1.15;;;5.40;99.90;;;;;;5028187;28;20116;-51
2022/02/19 12:15:38;;;;;;;3.47;1.50;;;5.50;99.90;;;;;;5028176;28;20558;-56
2022/02/19 12:18:04;;;;;;;6.30;1.75;;;5.50;99.90;;;;;;4984088;28;20033;-57
2022/02/19 12:20:35;;;;;;;4.28;1.33;;;5.50;99.90;;;;;;5028130;28;20036;-53
2022/02/19 12:23:04;;;;;;;4.85;1.90;;;5.60;99.90;;;;;;5023756;28;20020;-57
2022/02/19 12:25:55;;;;;;;5.97;1.40;;;5.70;99.90;;;;;;5010505;28;20128;-55
2022/02/19 12:28:21;;;;;;;2.03;1.23;;;5.80;99.90;;;;;;5028560;28;20111;-53
2022/02/19 12:31:10;;;;;;;4.10;1.00;;;6.00;99.90;;;;;;5028283;28;20017;-56
2022/02/19 12:33:37;;;;;;;7.28;1.75;;;6.20;99.90;;;;;;5031740;28;20447;-56
2022/02/19 12:36:11;;;;;;;7.03;1.50;;;6.20;99.90;;;;;;5031904;28;20033;-58
2022/02/19 12:38:37;;;;;;;3.35;1.45;;;6.30;99.90;;;;;;5032556;28;20017;-55
2022/02/19 12:41:04;;;;;;;5.07;2.33;;;6.10;99.90;;;;;;5032160;28;20087;-58
2022/02/19 12:43:30;;;;;;;10.32;2.05;;;5.90;99.90;;;;;;5032167;28;20049;-58
2022/02/19 12:45:56;;;;;;;5.43;1.80;;;5.90;99.90;;;;;;5031933;28;20062;-58
2022/02/19 12:48:23;;;;;;;8.32;2.75;;;5.90;99.90;;;;;;5032094;28;20033;-56
2022/02/19 12:50:58;;;;;;;16.27;5.68;;;5.90;99.90;;;;;;5032178;28;20473;-56
2022/02/19 12:53:24;;;;;;;15.52;6.05;;;5.90;99.90;;;;;;5031801;28;20485;-50
2022/02/19 12:55:54;;;;;;;14.18;5.65;;;5.90;99.90;;;;;;5031449;28;20032;-53
2022/02/19 12:58:20;;;;;;;26.73;13.00;;;5.80;99.90;;;;;;5031236;28;20018;-58
2022/02/19 13:00:54;;;;;;;24.48;14.55;;;5.80;99.90;;;;;;5014108;28;20049;-53
2022/02/19 13:03:20;;;;;;;12.73;7.88;;;5.80;99.90;;;;;;5031263;28;20021;-52
2022/02/19 13:05:56;;;;;;;13.88;6.30;;;5.80;99.90;;;;;;5032035;28;20029;-53
2022/02/19 13:08:22;;;;;;;18.13;4.50;;;5.90;99.90;;;;;;5031766;28;20068;-55
2022/02/19 13:10:50;;;;;;;14.90;7.15;;;5.90;99.90;;;;;;5031553;28;20041;-52
2022/02/19 13:13:17;;;;;;;7.07;3.10;;;6.00;99.90;;;;;;5031083;28;20043;-55
2022/02/19 13:15:54;;;;;;;7.55;2.42;;;6.00;99.90;;;;;;5030948;28;20034;-58
2022/02/19 13:18:20;;;;;;;15.98;6.18;;;5.90;99.90;;;;;;5031150;28;20025;-53
2022/02/19 13:20:45;;;;;;;37.20;21.60;;;5.80;99.90;;;;;;4997674;28;20041;-57
2022/02/19 13:23:11;;;;;;;12.52;5.38;;;5.50;99.90;;;;;;5031385;28;20030;-53
2022/02/19 13:25:37;;;;;;;6.53;1.65;;;5.10;99.90;;;;;;5030637;28;20093;-63
2022/02/19 13:28:07;;;;;;;20.30;11.60;;;4.80;99.90;;;;;;5030982;28;20033;-54
2022/02/19 13:30:33;;;;;;;7.80;3.20;;;4.70;99.90;;;;;;5031009;28;20397;-55
2022/02/19 13:32:59;;;;;;;8.85;3.03;;;4.60;99.90;;;;;;5030619;28;20120;-54
2022/02/19 13:35:29;;;;;;;13.80;7.55;;;4.60;99.90;;;;;;5030291;28;20030;-55
2022/02/19 13:37:57;;;;;;;6.47;3.28;;;4.70;99.90;;;;;;5030969;28;20022;-51
2022/02/19 13:40:31;;;;;;;9.02;2.90;;;4.60;99.90;;;;;;5030636;28;20026;-57
2022/02/19 13:43:11;;;;;;;5.95;2.03;;;4.60;99.90;;;;;;5030562;28;20404;-56
2022/02/19 13:45:42;;;;;;;8.55;2.38;;;4.50;99.90;;;;;;5030570;28;20533;-51
2022/02/19 13:48:10;;;;;;;8.82;2.00;;;4.60;99.90;;;;;;5030961;28;20029;-59
2022/02/19 13:50:43;;;;;;;7.22;1.73;;;4.80;99.90;;;;;;5030746;28;20022;-53
2022/02/19 13:53:12;;;;;;;6.57;2.08;;;5.00;99.90;;;;;;5030474;28;20082;-56
2022/02/19 13:55:41;;;;;;;5.18;1.42;;;5.20;99.90;;;;;;5031178;28;20033;-51
2022/02/19 13:58:20;;;;;;;10.10;1.95;;;5.30;99.90;;;;;;5012641;28;20033;-57
2022/02/19 14:00:47;;;;;;;14.05;2.10;;;5.40;99.90;;;;;;5053254;22;20120;-52
2022/02/19 14:03:14;;;;;;;7.38;1.88;;;5.50;99.90;;;;;;5027731;28;20018;-52
2022/02/19 14:05:45;;;;;;;3.83;1.65;;;5.50;99.90;;;;;;5032247;28;20037;-51
2022/02/19 14:08:15;;;;;;;9.75;2.15;;;5.40;99.90;;;;;;5048697;28;20395;-54
2022/02/19 14:11:00;;;;;;;9.90;1.90;;;5.40;99.90;;;;;;5050387;28;20055;-53
2022/02/19 14:13:27;;;;;;;8.70;2.13;;;5.30;99.90;;;;;;5027874;28;20404;-51
2022/02/19 14:15:54;;;;;;;11.00;2.08;;;5.20;99.90;;;;;;5012655;28;20496;-52
2022/02/19 14:18:21;;;;;;;12.95;2.63;;;5.20;99.90;;;;;;5030161;28;20112;-51
2022/02/19 14:20:47;;;;;;;10.38;2.70;;;5.20;99.90;;;;;;5030405;28;20022;-56
2022/02/19 14:23:29;;;;;;;8.25;2.45;;;5.20;99.90;;;;;;5013520;28;20029;-52
2022/02/19 14:25:57;;;;;;;8.10;1.90;;;5.10;99.90;;;;;;5030584;28;20201;-51
2022/02/19 14:28:28;;;;;;;3.22;1.58;;;5.10;99.90;;;;;;5030118;28;20033;-54
2022/02/19 14:30:56;;;;;;;3.65;1.65;;;5.10;99.90;;;;;;5029873;28;20051;-53
2022/02/19 14:33:23;;;;;;;8.23;2.05;;;5.10;99.90;;;;;;5030191;28;20029;-55
2022/02/19 14:35:49;;;;;;;7.78;2.08;;;5.10;99.90;;;;;;5013490;28;20071;-53
2022/02/19 14:38:32;;;;;;;7.60;2.45;;;5.20;99.90;;;;;;5030176;28;20103;-49
2022/02/19 14:41:00;;;;;;;13.57;2.28;;;5.40;99.90;;;;;;5033756;28;20025;-51
2022/02/19 14:43:26;;;;;;;6.25;1.58;;;5.50;99.90;;;;;;5030426;28;20037;-54
2022/02/19 14:45:52;;;;;;;6.30;1.67;;;5.60;99.90;;;;;;5030258;28;20155;-55
2022/02/19 14:48:20;;;;;;;8.77;2.20;;;5.50;99.90;;;;;;5040575;28;20056;-53
2022/02/19 14:50:48;;;;;;;5.35;1.92;;;5.50;99.90;;;;;;5031316;28;20102;-51
2022/02/19 14:53:15;;;;;;;8.93;1.92;;;5.50;99.90;;;;;;5036480;28;20034;-51
2022/02/19 14:55:41;;;;;;;6.55;2.00;;;5.40;99.90;;;;;;5028483;28;20028;-53
2022/02/19 14:58:07;;;;;;;6.30;1.77;;;5.40;99.90;;;;;;5028999;28;20630;-52
2022/02/19 15:00:33;;;;;;;8.18;1.65;;;5.30;99.90;;;;;;5029573;28;20057;-52
2022/02/19 15:02:59;;;;;;;7.47;2.15;;;5.30;99.90;;;;;;5012835;28;20021;-52
2022/02/19 15:05:25;;;;;;;9.20;1.77;;;5.30;99.90;;;;;;5029951;28;20104;-51
2022/02/19 15:07:51;;;;;;;5.47;1.70;;;5.30;99.90;;;;;;5029362;28;20608;-51
2022/02/19 15:10:17;;;;;;;7.53;1.30;;;5.40;99.90;;;;;;5043980;28;20112;-52
2022/02/19 15:12:44;;;;;;;7.63;1.45;;;5.40;99.90;;;;;;5029101;28;20028;-52
2022/02/19 15:15:12;;;;;;;4.75;1.73;;;5.50;99.90;;;;;;5032649;28;20671;-54
2022/02/19 15:17:38;;;;;;;5.85;1.75;;;5.60;99.90;;;;;;5049459;28;20029;-51
2022/02/19 15:20:05;;;;;;;5.78;1.90;;;5.60;99.90;;;;;;5040858;28;20120;-51
2022/02/19 15:22:30;;;;;;;8.63;1.88;;;5.60;99.90;;;;;;5028909;28;20071;-53
2022/02/19 15:24:56;;;;;;;8.95;1.90;;;5.60;99.90;;;;;;5019480;28;20060;-51
2022/02/19 15:27:21;;;;;;;5.40;1.55;;;5.50;99.90;;;;;;5049049;28;20033;-54
2022/02/19 15:29:48;;;;;;;9.43;2.00;;;5.40;99.90;;;;;;5039940;28;20033;-52
2022/02/19 15:32:14;;;;;;;4.28;0.98;;;5.40;99.90;;;;;;5029820;28;20497;-52
2022/02/19 15:34:40;;;;;;;2.85;0.90;;;5.40;99.90;;;;;;5047866;28;20029;-54
2022/02/19 15:37:06;;;;;;;8.32;2.13;;;5.40;99.90;;;;;;5043613;28;20079;-52
2022/02/19 15:39:32;;;;;;;6.25;1.70;;;5.30;99.90;;;;;;5048806;28;20113;-52
2022/02/19 15:41:58;;;;;;;8.95;1.90;;;5.30;99.90;;;;;;5029258;28;20428;-54
2022/02/19 15:44:24;;;;;;;5.07;1.70;;;5.20;99.90;;;;;;5047270;28;20044;-52
2022/02/19 15:46:51;;;;;;;6.28;1.63;;;5.20;99.90;;;;;;5048596;28;20512;-51
2022/02/19 15:49:18;;;;;;;7.00;1.50;;;5.20;99.90;;;;;;5017147;28;20554;-53
2022/02/19 15:51:43;;;;;;;4.43;1.55;;;5.20;99.90;;;;;;5020543;28;20044;-55
2022/02/19 15:54:09;;;;;;;9.90;1.98;;;5.20;99.90;;;;;;5037537;28;20029;-54
2022/02/19 15:56:36;;;;;;;6.00;1.65;;;5.10;99.90;;;;;;5049051;28;20033;-51
2022/02/19 15:59:06;;;;;;;6.22;1.55;;;5.10;99.90;;;;;;5046900;28;20036;-51
2022/02/19 16:01:32;;;;;;;5.13;1.70;;;5.10;99.90;;;;;;5048223;28;20512;-53
2022/02/19 16:03:58;;;;;;;8.75;1.85;;;5.00;99.90;;;;;;5014078;28;20025;-51
2022/02/19 16:06:24;;;;;;;8.02;2.17;;;5.00;99.90;;;;;;5005939;28;20065;-51
2022/02/19 16:08:50;;;;;;;5.53;2.00;;;4.90;99.90;;;;;;5012907;28;20022;-52
2022/02/19 16:11:16;;;;;;;8.68;1.80;;;4.90;99.90;;;;;;5013437;28;20113;-51
2022/02/19 16:13:41;;;;;;;4.28;1.55;;;4.80;99.90;;;;;;4995425;28;20466;-53
2022/02/19 16:16:07;;;;;;;7.20;1.95;;;4.80;99.90;;;;;;4995060;28;20056;-52
2022/02/19 16:18:37;;;;;;;7.93;1.95;;;4.70;99.90;;;;;;4995438;28;20651;-50
2022/02/19 16:21:03;;;;;;;11.73;2.65;;;4.70;99.90;;;;;;5013904;28;20062;-51
2022/02/19 16:23:28;;;;;;;8.00;2.22;;;4.60;99.90;;;;;;5012248;28;20065;-54
2022/02/19 16:25:54;;;;;;;7.70;2.45;;;4.60;99.90;;;;;;5013800;28;20030;-55
2022/02/19 16:28:19;;;;;;;4.00;1.67;;;4.60;99.90;;;;;;5032292;28;20029;-53
2022/02/19 16:30:47;;;;;;;6.07;2.85;;;4.60;99.90;;;;;;5030996;28;20030;-52
2022/02/19 16:33:14;;;;;;;5.07;2.63;;;4.50;99.90;;;;;;4994443;28;20524;-50
2022/02/19 16:35:39;;;;;;;7.88;2.05;;;4.50;99.90;;;;;;5016769;28;20029;-53
2022/02/19 16:38:05;;;;;;;7.57;1.50;;;4.50;99.90;;;;;;5012324;28;20028;-51
2022/02/19 16:40:30;;;;;;;8.85;1.48;;;4.50;99.90;;;;;;5025810;28;20026;-52
2022/02/19 16:42:57;;;;;;;9.13;1.35;;;4.40;99.90;;;;;;5031674;28;20030;-50
2022/02/19 16:45:22;;;;;;;7.18;1.55;;;4.40;99.90;;;;;;5030962;28;20021;-54
2022/02/19 16:47:48;;;;;;;7.30;1.90;;;4.40;99.90;;;;;;5030977;28;20488;-53
2022/02/19 16:50:15;;;;;;;15.70;7.57;;;4.40;99.90;;;;;;5021582;28;20116;-56
2022/02/19 16:52:42;;;;;;;13.13;2.55;;;4.40;99.90;;;;;;5017989;28;20158;-50
2022/02/19 16:55:09;;;;;;;22.27;6.47;;;4.40;99.90;;;;;;5012974;28;20575;-50
2022/02/19 16:57:35;;;;;;;10.05;4.07;;;4.40;99.90;;;;;;5002758;28;20515;-53
2022/02/19 17:00:00;;;;;;;23.73;8.50;;;4.30;99.90;;;;;;5029614;28;20033;-54
2022/02/19 17:02:26;;;;;;;17.30;8.27;;;4.30;99.90;;;;;;5032101;28;20056;-50
2022/02/19 17:04:51;;;;;;;18.60;8.18;;;4.30;99.90;;;;;;5013699;28;20696;-53
2022/02/19 17:07:17;;;;;;;12.07;5.63;;;4.20;99.90;;;;;;5030562;28;20439;-55
2022/02/19 17:09:43;;;;;;;9.70;4.90;;;4.20;99.90;;;;;;5032530;28;20399;-51
2022/02/19 17:12:08;;;;;;;7.57;2.90;;;4.20;99.90;;;;;;5020439;28;20397;-51
2022/02/19 17:14:34;;;;;;;6.00;2.70;;;4.10;99.90;;;;;;5012164;28;20091;-51
2022/02/19 17:17:00;;;;;;;7.28;2.38;;;4.10;99.90;;;;;;5013198;28;20052;-49
2022/02/19 17:19:25;;;;;;;8.25;2.42;;;4.10;99.90;;;;;;5027979;28;20080;-54
2022/02/19 17:21:51;;;;;;;10.02;3.35;;;4.20;99.90;;;;;;5031784;28;20113;-54
2022/02/19 17:24:17;;;;;;;6.45;4.22;;;4.20;99.90;;;;;;5032066;28;20029;-54
2022/02/19 17:26:42;;;;;;;9.90;8.80;;;4.10;99.90;;;;;;5012532;28;20098;-54
2022/02/19 17:29:08;;;;;;;8.25;2.10;;;4.10;99.90;;;;;;5032017;28;20505;-51
2022/02/19 17:31:33;;;;;;;5.22;2.03;;;4.10;99.90;;;;;;5036367;28;20032;-55
2022/02/19 17:33:59;;;;;;;6.63;1.70;;;4.10;99.90;;;;;;5030509;28;20072;-53
2022/02/19 17:36:25;;;;;;;7.75;1.98;;;4.10;99.90;;;;;;5020128;28;20029;-51
2022/02/19 17:38:52;;;;;;;4.47;1.90;;;4.00;99.90;;;;;;5031464;28;20025;-53
2022/02/19 17:41:18;;;;;;;14.35;3.80;;;4.00;99.90;;;;;;5040979;28;20071;-54
2022/02/19 17:43:44;;;;;;;27.65;13.63;;;4.00;99.90;;;;;;5050653;28;20065;-49
2022/02/19 17:46:10;;;;;;;10.45;5.55;;;4.00;99.90;;;;;;5045987;28;20512;-50
2022/02/19 17:48:36;;;;;;;7.53;2.15;;;4.00;99.90;;;;;;5030658;28;20029;-50
2022/02/19 17:51:01;;;;;;;5.95;2.00;;;4.00;99.90;;;;;;5031490;28;20087;-50
2022/02/19 17:53:27;;;;;;;6.60;2.53;;;4.00;99.90;;;;;;5031545;28;20488;-54
2022/02/19 17:55:53;;;;;;;5.07;1.70;;;4.00;99.90;;;;;;5048378;28;20477;-50
2022/02/19 17:58:20;;;;;;;8.68;1.83;;;3.90;99.90;;;;;;5018839;28;20049;-52
2022/02/19 18:00:47;;;;;;;4.85;1.88;;;3.90;99.90;;;;;;5031884;28;20029;-51
2022/02/19 18:03:12;;;;;;;2.95;1.42;;;3.90;99.90;;;;;;5030364;28;20072;-50
2022/02/19 18:05:38;;;;;;;9.40;1.98;;;3.90;99.90;;;;;;5030460;28;20563;-51
2022/02/19 18:08:04;;;;;;;5.43;1.95;;;3.80;99.90;;;;;;5032061;28;20035;-50
2022/02/19 18:10:30;;;;;;;2.67;1.80;;;3.80;99.90;;;;;;5030356;28;20025;-52
2022/02/19 18:12:58;;;;;;;8.63;2.40;;;3.80;99.90;;;;;;5031731;28;20033;-50
2022/02/19 18:15:24;;;;;;;9.38;2.05;;;3.70;99.90;;;;;;5025064;28;20029;-51
2022/02/19 18:17:49;;;;;;;5.45;2.33;;;3.70;99.90;;;;;;5013847;28;20385;-50
2022/02/19 18:20:15;;;;;;;9.10;2.33;;;3.70;99.90;;;;;;5032951;28;20023;-52
2022/02/19 18:22:44;;;;;;;8.02;2.22;;;3.80;99.90;;;;;;5028947;28;20030;-50
2022/02/19 18:25:09;;;;;;;7.55;2.05;;;3.80;99.90;;;;;;5015572;28;20550;-49
2022/02/19 18:27:35;;;;;;;7.07;2.03;;;3.80;99.90;;;;;;5030106;28;20112;-51
2022/02/19 18:30:03;;;;;;;9.25;2.80;;;3.80;99.90;;;;;;5029075;28;20036;-51
2022/02/19 18:32:29;;;;;;;5.63;1.75;;;3.80;99.90;;;;;;5029705;28;20116;-52
2022/02/19 18:34:55;;;;;;;4.20;1.60;;;3.90;99.90;;;;;;5030194;28;20112;-51
2022/02/19 18:37:21;;;;;;;3.45;1.52;;;3.90;99.90;;;;;;5032292;28;20025;-51
2022/02/19 18:39:46;;;;;;;5.72;2.00;;;3.80;99.90;;;;;;5042239;28;20057;-52
2022/02/19 18:42:12;;;;;;;6.72;1.60;;;3.80;99.90;;;;;;5035702;28;20073;-52
2022/02/19 18:44:38;;;;;;;7.97;2.63;;;3.80;99.90;;;;;;5019759;28;20075;-51
2022/02/19 18:47:04;;;;;;;7.07;1.80;;;3.80;99.90;;;;;;5012997;28;20030;-48
2022/02/19 18:49:30;;;;;;;5.95;2.53;;;3.80;99.90;;;;;;5030501;28;20036;-50
2022/02/19 18:51:57;;;;;;;6.18;2.17;;;3.80;99.90;;;;;;5033859;28;20025;-50
2022/02/19 18:54:23;;;;;;;5.82;2.55;;;3.80;99.90;;;;;;5050319;28;20488;-50
2022/02/19 18:56:52;;;;;;;5.18;2.10;;;3.80;99.90;;;;;;5036726;28;20076;-50
2022/02/19 18:59:17;;;;;;;13.32;2.58;;;3.80;99.90;;;;;;5030113;28;20017;-51
2022/02/19 19:01:43;;;;;;;10.30;2.47;;;3.80;99.90;;;;;;5043556;28;20033;-49
2022/02/19 19:04:09;;;;;;;8.50;2.13;;;3.90;99.90;;;;;;5049875;28;20029;-52
2022/02/19 19:06:35;;;;;;;3.97;1.55;;;3.90;99.90;;;;;;5049448;28;20029;-49
2022/02/19 19:09:01;;;;;;;3.60;1.75;;;4.00;99.90;;;;;;5043083;28;20029;-51
2022/02/19 19:11:27;;;;;;;9.95;2.15;;;4.00;99.90;;;;;;5038268;28;20041;-50
2022/02/19 19:13:53;;;;;;;7.88;2.60;;;4.00;99.90;;;;;;5029496;28;20029;-49